sensor_id;sensor_type;location;lat;lon;timestamp;P1;durP1;ratioP1;P2;durP2;ratioP2
31730;SDS011;18310;55.586;12.286;2023-06-26T00:02:19;7.03;;;3.30;;
31730;SDS011;18310;55.586;12.286;2023-06-26T00:05:22;5.23;;;3.00;;
31730;SDS011;18310;55.586;12.286;2023-06-26T00:08:27;3.97;;;2.70;;
31730;SDS011;18310;55.586;12.286;2023-06-26T00:11:30;3.75;;;2.78;;
31730;SDS011;18310;55.586;12.286;2023-06-26T00:14:35;5.22;;;2.80;;
31730;SDS011;18310;55.586;12.286;2023-06-26T00:17:38;4.30;;;2.73;;
31730;SDS011;18310;55.586;12.286;2023-06-26T00:20:42;3.72;;;2.88;;
31730;SDS011;18310;55.586;12.286;2023-06-26T00:23:46;4.45;;;2.70;;
31730;SDS011;18310;55.586;12.286;2023-06-26T00:26:49;5.90;;;3.63;;
31730;SDS011;18310;55.586;12.286;2023-06-26T00:29:52;5.70;;;3.13;;
31730;SDS011;18310;55.586;12.286;2023-06-26T00:32:55;4.57;;;3.25;;
31730;SDS011;18310;55.586;12.286;2023-06-26T00:35:59;6.03;;;3.28;;
31730;SDS011;18310;55.586;12.286;2023-06-26T00:39:04;7.90;;;3.47;;
31730;SDS011;18310;55.586;12.286;2023-06-26T00:42:08;5.30;;;3.42;;
31730;SDS011;18310;55.586;12.286;2023-06-26T00:45:12;4.63;;;3.08;;
31730;SDS011;18310;55.586;12.286;2023-06-26T00:48:15;4.63;;;3.17;;
31730;SDS011;18310;55.586;12.286;2023-06-26T00:51:18;4.72;;;3.22;;
31730;SDS011;18310;55.586;12.286;2023-06-26T00:54:23;5.65;;;3.60;;
31730;SDS011;18310;55.586;12.286;2023-06-26T00:57:26;5.43;;;3.80;;
31730;SDS011;18310;55.586;12.286;2023-06-26T01:00:30;5.10;;;3.40;;
31730;SDS011;18310;55.586;12.286;2023-06-26T01:03:55;4.70;;;3.40;;
31730;SDS011;18310;55.586;12.286;2023-06-26T01:06:59;5.10;;;3.50;;
31730;SDS011;18310;55.586;12.286;2023-06-26T01:10:05;3.72;;;2.85;;
31730;SDS011;18310;55.586;12.286;2023-06-26T01:13:09;5.47;;;3.55;;
31730;SDS011;18310;55.586;12.286;2023-06-26T01:19:20;5.07;;;3.22;;
31730;SDS011;18310;55.586;12.286;2023-06-26T01:22:29;5.85;;;3.25;;
31730;SDS011;18310;55.586;12.286;2023-06-26T01:25:51;5.22;;;3.80;;
31730;SDS011;18310;55.586;12.286;2023-06-26T01:29:06;6.85;;;4.07;;
31730;SDS011;18310;55.586;12.286;2023-06-26T01:32:12;5.53;;;3.97;;
31730;SDS011;18310;55.586;12.286;2023-06-26T01:35:15;6.07;;;4.03;;
31730;SDS011;18310;55.586;12.286;2023-06-26T01:38:19;6.00;;;4.20;;
31730;SDS011;18310;55.586;12.286;2023-06-26T01:41:25;5.32;;;3.65;;
31730;SDS011;18310;55.586;12.286;2023-06-26T01:44:30;6.95;;;3.83;;
31730;SDS011;18310;55.586;12.286;2023-06-26T01:47:37;5.15;;;4.25;;
31730;SDS011;18310;55.586;12.286;2023-06-26T01:50:45;5.00;;;3.97;;
31730;SDS011;18310;55.586;12.286;2023-06-26T01:53:49;4.90;;;4.03;;
31730;SDS011;18310;55.586;12.286;2023-06-26T01:56:56;5.47;;;3.72;;
31730;SDS011;18310;55.586;12.286;2023-06-26T02:00:02;5.57;;;3.75;;
31730;SDS011;18310;55.586;12.286;2023-06-26T02:03:07;5.30;;;4.05;;
31730;SDS011;18310;55.586;12.286;2023-06-26T02:06:10;5.30;;;3.80;;
31730;SDS011;18310;55.586;12.286;2023-06-26T02:09:14;6.57;;;4.18;;
31730;SDS011;18310;55.586;12.286;2023-06-26T02:12:17;6.10;;;3.40;;
31730;SDS011;18310;55.586;12.286;2023-06-26T02:15:22;5.28;;;4.07;;
31730;SDS011;18310;55.586;12.286;2023-06-26T02:18:25;4.63;;;3.53;;
31730;SDS011;18310;55.586;12.286;2023-06-26T02:21:28;7.20;;;4.13;;
31730;SDS011;18310;55.586;12.286;2023-06-26T02:24:31;4.90;;;3.90;;
31730;SDS011;18310;55.586;12.286;2023-06-26T02:30:40;3.92;;;2.75;;
31730;SDS011;18310;55.586;12.286;2023-06-26T02:33:43;5.35;;;3.55;;
31730;SDS011;18310;55.586;12.286;2023-06-26T02:36:47;4.47;;;2.95;;
31730;SDS011;18310;55.586;12.286;2023-06-26T02:39:50;5.60;;;3.55;;
31730;SDS011;18310;55.586;12.286;2023-06-26T02:42:53;6.20;;;3.50;;
31730;SDS011;18310;55.586;12.286;2023-06-26T02:45:57;4.22;;;2.85;;
31730;SDS011;18310;55.586;12.286;2023-06-26T02:49:01;3.58;;;2.88;;
31730;SDS011;18310;55.586;12.286;2023-06-26T02:52:04;7.17;;;3.77;;
31730;SDS011;18310;55.586;12.286;2023-06-26T02:55:08;5.63;;;3.50;;
31730;SDS011;18310;55.586;12.286;2023-06-26T02:58:11;4.20;;;3.10;;
31730;SDS011;18310;55.586;12.286;2023-06-26T03:01:15;4.60;;;3.15;;
31730;SDS011;18310;55.586;12.286;2023-06-26T03:04:41;5.95;;;3.30;;
31730;SDS011;18310;55.586;12.286;2023-06-26T03:07:45;3.45;;;2.65;;
31730;SDS011;18310;55.586;12.286;2023-06-26T03:10:48;6.87;;;3.73;;
31730;SDS011;18310;55.586;12.286;2023-06-26T03:13:51;5.57;;;3.00;;
31730;SDS011;18310;55.586;12.286;2023-06-26T03:16:54;4.95;;;3.55;;
31730;SDS011;18310;55.586;12.286;2023-06-26T03:20:01;4.40;;;3.42;;
31730;SDS011;18310;55.586;12.286;2023-06-26T03:23:04;5.05;;;3.15;;
31730;SDS011;18310;55.586;12.286;2023-06-26T03:26:07;4.97;;;3.47;;
31730;SDS011;18310;55.586;12.286;2023-06-26T03:29:10;4.88;;;3.25;;
31730;SDS011;18310;55.586;12.286;2023-06-26T03:32:14;5.38;;;3.67;;
31730;SDS011;18310;55.586;12.286;2023-06-26T03:35:18;5.57;;;3.53;;
31730;SDS011;18310;55.586;12.286;2023-06-26T03:38:21;5.40;;;3.67;;
31730;SDS011;18310;55.586;12.286;2023-06-26T03:41:25;4.80;;;3.38;;
31730;SDS011;18310;55.586;12.286;2023-06-26T03:44:28;4.85;;;3.45;;
31730;SDS011;18310;55.586;12.286;2023-06-26T03:47:31;5.60;;;3.75;;
31730;SDS011;18310;55.586;12.286;2023-06-26T03:50:36;9.02;;;3.45;;
31730;SDS011;18310;55.586;12.286;2023-06-26T03:53:39;5.30;;;4.00;;
31730;SDS011;18310;55.586;12.286;2023-06-26T03:56:43;6.50;;;3.67;;
31730;SDS011;18310;55.586;12.286;2023-06-26T03:59:46;4.73;;;3.30;;
31730;SDS011;18310;55.586;12.286;2023-06-26T04:02:49;5.20;;;3.45;;
31730;SDS011;18310;55.586;12.286;2023-06-26T04:05:54;7.32;;;3.78;;
31730;SDS011;18310;55.586;12.286;2023-06-26T04:09:17;4.82;;;4.07;;
31730;SDS011;18310;55.586;12.286;2023-06-26T04:12:21;5.72;;;3.95;;
31730;SDS011;18310;55.586;12.286;2023-06-26T04:15:24;6.65;;;4.45;;
31730;SDS011;18310;55.586;12.286;2023-06-26T04:18:27;6.03;;;4.50;;
31730;SDS011;18310;55.586;12.286;2023-06-26T04:21:30;6.90;;;4.53;;
31730;SDS011;18310;55.586;12.286;2023-06-26T04:24:35;4.65;;;3.95;;
31730;SDS011;18310;55.586;12.286;2023-06-26T04:27:39;6.00;;;4.10;;
31730;SDS011;18310;55.586;12.286;2023-06-26T04:30:43;5.57;;;3.97;;
31730;SDS011;18310;55.586;12.286;2023-06-26T04:33:47;4.75;;;4.00;;
31730;SDS011;18310;55.586;12.286;2023-06-26T04:36:52;6.10;;;3.80;;
31730;SDS011;18310;55.586;12.286;2023-06-26T04:39:57;5.05;;;3.78;;
31730;SDS011;18310;55.586;12.286;2023-06-26T04:43:00;6.03;;;3.85;;
31730;SDS011;18310;55.586;12.286;2023-06-26T04:46:03;5.50;;;3.70;;
31730;SDS011;18310;55.586;12.286;2023-06-26T04:49:06;5.20;;;3.60;;
31730;SDS011;18310;55.586;12.286;2023-06-26T04:52:10;4.90;;;3.53;;
31730;SDS011;18310;55.586;12.286;2023-06-26T04:55:16;4.85;;;3.60;;
31730;SDS011;18310;55.586;12.286;2023-06-26T04:58:19;5.13;;;3.70;;
31730;SDS011;18310;55.586;12.286;2023-06-26T05:01:22;5.93;;;4.00;;
31730;SDS011;18310;55.586;12.286;2023-06-26T05:04:25;3.70;;;3.10;;
31730;SDS011;18310;55.586;12.286;2023-06-26T05:07:28;5.13;;;3.47;;
31730;SDS011;18310;55.586;12.286;2023-06-26T05:10:33;4.43;;;3.43;;
31730;SDS011;18310;55.586;12.286;2023-06-26T05:13:38;4.82;;;3.17;;
31730;SDS011;18310;55.586;12.286;2023-06-26T05:16:41;5.43;;;3.10;;
31730;SDS011;18310;55.586;12.286;2023-06-26T05:19:44;4.45;;;3.00;;
31730;SDS011;18310;55.586;12.286;2023-06-26T05:22:47;5.47;;;2.92;;
31730;SDS011;18310;55.586;12.286;2023-06-26T05:25:53;4.57;;;3.30;;
31730;SDS011;18310;55.586;12.286;2023-06-26T05:28:57;5.45;;;3.60;;
31730;SDS011;18310;55.586;12.286;2023-06-26T05:35:05;5.38;;;3.45;;
31730;SDS011;18310;55.586;12.286;2023-06-26T05:38:09;4.15;;;2.92;;
31730;SDS011;18310;55.586;12.286;2023-06-26T05:41:14;5.90;;;3.10;;
31730;SDS011;18310;55.586;12.286;2023-06-26T05:44:18;3.97;;;2.65;;
31730;SDS011;18310;55.586;12.286;2023-06-26T05:47:21;4.50;;;3.20;;
31730;SDS011;18310;55.586;12.286;2023-06-26T05:50:24;4.03;;;3.05;;
31730;SDS011;18310;55.586;12.286;2023-06-26T05:53:29;4.78;;;2.65;;
31730;SDS011;18310;55.586;12.286;2023-06-26T05:56:34;3.97;;;2.65;;
31730;SDS011;18310;55.586;12.286;2023-06-26T05:59:38;3.50;;;2.40;;
31730;SDS011;18310;55.586;12.286;2023-06-26T06:02:43;4.40;;;2.75;;
31730;SDS011;18310;55.586;12.286;2023-06-26T06:05:46;5.95;;;2.70;;
31730;SDS011;18310;55.586;12.286;2023-06-26T06:08:49;4.40;;;2.65;;
31730;SDS011;18310;55.586;12.286;2023-06-26T06:14:57;4.28;;;2.13;;
31730;SDS011;18310;55.586;12.286;2023-06-26T06:18:00;5.32;;;2.40;;
31730;SDS011;18310;55.586;12.286;2023-06-26T06:21:03;4.00;;;2.20;;
31730;SDS011;18310;55.586;12.286;2023-06-26T06:24:07;4.07;;;2.00;;
31730;SDS011;18310;55.586;12.286;2023-06-26T06:27:12;3.70;;;2.28;;
31730;SDS011;18310;55.586;12.286;2023-06-26T06:30:16;3.75;;;2.13;;
31730;SDS011;18310;55.586;12.286;2023-06-26T06:33:29;4.80;;;1.73;;
31730;SDS011;18310;55.586;12.286;2023-06-26T06:36:33;3.03;;;1.80;;
31730;SDS011;18310;55.586;12.286;2023-06-26T06:39:36;3.47;;;1.95;;
31730;SDS011;18310;55.586;12.286;2023-06-26T06:42:40;4.57;;;2.07;;
31730;SDS011;18310;55.586;12.286;2023-06-26T06:45:44;6.13;;;2.30;;
31730;SDS011;18310;55.586;12.286;2023-06-26T06:48:48;4.57;;;2.10;;
31730;SDS011;18310;55.586;12.286;2023-06-26T06:51:51;3.88;;;2.28;;
31730;SDS011;18310;55.586;12.286;2023-06-26T06:54:55;3.38;;;2.20;;
31730;SDS011;18310;55.586;12.286;2023-06-26T06:58:01;4.93;;;2.50;;
31730;SDS011;18310;55.586;12.286;2023-06-26T07:01:07;4.50;;;2.60;;
31730;SDS011;18310;55.586;12.286;2023-06-26T07:04:10;3.92;;;2.53;;
31730;SDS011;18310;55.586;12.286;2023-06-26T07:07:17;4.57;;;2.55;;
31730;SDS011;18310;55.586;12.286;2023-06-26T07:10:21;11.95;;;2.17;;
31730;SDS011;18310;55.586;12.286;2023-06-26T07:13:26;4.18;;;2.33;;
31730;SDS011;18310;55.586;12.286;2023-06-26T07:16:29;5.13;;;2.95;;
31730;SDS011;18310;55.586;12.286;2023-06-26T07:19:32;4.27;;;2.97;;
31730;SDS011;18310;55.586;12.286;2023-06-26T07:22:35;4.93;;;2.67;;
31730;SDS011;18310;55.586;12.286;2023-06-26T07:25:38;4.90;;;3.13;;
31730;SDS011;18310;55.586;12.286;2023-06-26T07:29:05;5.30;;;2.85;;
31730;SDS011;18310;55.586;12.286;2023-06-26T07:32:08;4.25;;;2.80;;
31730;SDS011;18310;55.586;12.286;2023-06-26T07:35:15;6.35;;;3.35;;
31730;SDS011;18310;55.586;12.286;2023-06-26T07:38:19;4.32;;;2.80;;
31730;SDS011;18310;55.586;12.286;2023-06-26T07:41:22;5.55;;;3.10;;
31730;SDS011;18310;55.586;12.286;2023-06-26T07:44:26;3.73;;;2.67;;
31730;SDS011;18310;55.586;12.286;2023-06-26T07:47:29;4.85;;;2.88;;
31730;SDS011;18310;55.586;12.286;2023-06-26T07:50:33;4.38;;;2.42;;
31730;SDS011;18310;55.586;12.286;2023-06-26T07:53:36;4.68;;;2.58;;
31730;SDS011;18310;55.586;12.286;2023-06-26T07:56:52;4.68;;;3.08;;
31730;SDS011;18310;55.586;12.286;2023-06-26T07:59:57;5.13;;;2.92;;
31730;SDS011;18310;55.586;12.286;2023-06-26T08:03:01;4.82;;;3.03;;
31730;SDS011;18310;55.586;12.286;2023-06-26T08:06:04;5.63;;;3.28;;
31730;SDS011;18310;55.586;12.286;2023-06-26T08:09:07;5.57;;;3.40;;
31730;SDS011;18310;55.586;12.286;2023-06-26T08:12:11;7.18;;;3.70;;
31730;SDS011;18310;55.586;12.286;2023-06-26T08:15:15;5.03;;;3.58;;
31730;SDS011;18310;55.586;12.286;2023-06-26T08:18:19;5.80;;;3.92;;
31730;SDS011;18310;55.586;12.286;2023-06-26T08:21:22;7.30;;;3.50;;
31730;SDS011;18310;55.586;12.286;2023-06-26T08:24:25;6.35;;;3.38;;
31730;SDS011;18310;55.586;12.286;2023-06-26T08:27:29;8.77;;;3.67;;
31730;SDS011;18310;55.586;12.286;2023-06-26T08:30:33;5.88;;;3.53;;
31730;SDS011;18310;55.586;12.286;2023-06-26T08:33:36;6.85;;;3.92;;
31730;SDS011;18310;55.586;12.286;2023-06-26T08:36:39;8.53;;;3.47;;
31730;SDS011;18310;55.586;12.286;2023-06-26T08:39:43;6.97;;;4.00;;
31730;SDS011;18310;55.586;12.286;2023-06-26T08:42:46;6.30;;;3.72;;
31730;SDS011;18310;55.586;12.286;2023-06-26T08:45:55;6.60;;;3.65;;
31730;SDS011;18310;55.586;12.286;2023-06-26T08:49:00;7.10;;;4.00;;
31730;SDS011;18310;55.586;12.286;2023-06-26T08:52:06;8.27;;;4.68;;
31730;SDS011;18310;55.586;12.286;2023-06-26T08:55:16;7.45;;;4.80;;
31730;SDS011;18310;55.586;12.286;2023-06-26T08:58:21;6.82;;;4.15;;
31730;SDS011;18310;55.586;12.286;2023-06-26T09:01:26;6.63;;;4.38;;
31730;SDS011;18310;55.586;12.286;2023-06-26T09:04:29;5.88;;;4.10;;
31730;SDS011;18310;55.586;12.286;2023-06-26T09:07:33;9.02;;;4.07;;
31730;SDS011;18310;55.586;12.286;2023-06-26T09:10:36;9.40;;;4.47;;
31730;SDS011;18310;55.586;12.286;2023-06-26T09:16:45;8.10;;;4.60;;
31730;SDS011;18310;55.586;12.286;2023-06-26T09:19:49;8.23;;;4.05;;
31730;SDS011;18310;55.586;12.286;2023-06-26T09:22:53;6.47;;;4.22;;
31730;SDS011;18310;55.586;12.286;2023-06-26T09:25:57;7.40;;;4.68;;
31730;SDS011;18310;55.586;12.286;2023-06-26T09:29:00;10.20;;;5.55;;
31730;SDS011;18310;55.586;12.286;2023-06-26T09:32:05;7.07;;;5.20;;
31730;SDS011;18310;55.586;12.286;2023-06-26T09:35:11;9.40;;;4.90;;
31730;SDS011;18310;55.586;12.286;2023-06-26T09:38:14;7.83;;;5.27;;
31730;SDS011;18310;55.586;12.286;2023-06-26T09:41:19;7.75;;;5.10;;
31730;SDS011;18310;55.586;12.286;2023-06-26T09:44:23;9.27;;;6.13;;
31730;SDS011;18310;55.586;12.286;2023-06-26T09:47:29;10.75;;;5.43;;
31730;SDS011;18310;55.586;12.286;2023-06-26T09:50:34;8.00;;;5.53;;
31730;SDS011;18310;55.586;12.286;2023-06-26T09:53:41;8.25;;;4.97;;
31730;SDS011;18310;55.586;12.286;2023-06-26T09:56:45;8.68;;;5.38;;
31730;SDS011;18310;55.586;12.286;2023-06-26T09:59:48;9.88;;;5.65;;
31730;SDS011;18310;55.586;12.286;2023-06-26T10:02:53;10.20;;;5.35;;
31730;SDS011;18310;55.586;12.286;2023-06-26T10:05:56;8.18;;;5.68;;
31730;SDS011;18310;55.586;12.286;2023-06-26T10:09:02;8.70;;;5.80;;
31730;SDS011;18310;55.586;12.286;2023-06-26T10:12:06;7.25;;;5.18;;
31730;SDS011;18310;55.586;12.286;2023-06-26T10:15:16;9.65;;;5.15;;
31730;SDS011;18310;55.586;12.286;2023-06-26T10:18:24;8.35;;;5.18;;
31730;SDS011;18310;55.586;12.286;2023-06-26T10:21:29;12.50;;;5.75;;
31730;SDS011;18310;55.586;12.286;2023-06-26T10:24:35;8.85;;;5.80;;
31730;SDS011;18310;55.586;12.286;2023-06-26T10:27:39;13.38;;;7.00;;
31730;SDS011;18310;55.586;12.286;2023-06-26T10:30:46;8.55;;;5.40;;
31730;SDS011;18310;55.586;12.286;2023-06-26T10:33:54;9.23;;;6.15;;
31730;SDS011;18310;55.586;12.286;2023-06-26T10:36:58;10.60;;;5.82;;
31730;SDS011;18310;55.586;12.286;2023-06-26T10:40:03;9.25;;;5.85;;
31730;SDS011;18310;55.586;12.286;2023-06-26T10:43:07;10.35;;;6.05;;
31730;SDS011;18310;55.586;12.286;2023-06-26T10:46:10;13.85;;;5.93;;
31730;SDS011;18310;55.586;12.286;2023-06-26T10:49:15;9.05;;;5.70;;
31730;SDS011;18310;55.586;12.286;2023-06-26T10:52:18;8.98;;;6.15;;
31730;SDS011;18310;55.586;12.286;2023-06-26T10:55:27;10.55;;;4.95;;
31730;SDS011;18310;55.586;12.286;2023-06-26T10:58:31;7.95;;;5.65;;
31730;SDS011;18310;55.586;12.286;2023-06-26T11:01:39;8.68;;;5.75;;
31730;SDS011;18310;55.586;12.286;2023-06-26T11:04:45;11.35;;;5.80;;
31730;SDS011;18310;55.586;12.286;2023-06-26T11:08:06;8.18;;;5.72;;
31730;SDS011;18310;55.586;12.286;2023-06-26T11:11:10;11.10;;;5.97;;
31730;SDS011;18310;55.586;12.286;2023-06-26T11:14:13;12.37;;;6.53;;
31730;SDS011;18310;55.586;12.286;2023-06-26T11:17:18;13.25;;;6.53;;
31730;SDS011;18310;55.586;12.286;2023-06-26T11:20:24;9.30;;;6.50;;
31730;SDS011;18310;55.586;12.286;2023-06-26T11:23:27;7.10;;;5.57;;
31730;SDS011;18310;55.586;12.286;2023-06-26T11:26:30;9.48;;;5.97;;
31730;SDS011;18310;55.586;12.286;2023-06-26T11:29:46;11.20;;;6.97;;
31730;SDS011;18310;55.586;12.286;2023-06-26T11:32:50;9.60;;;6.35;;
31730;SDS011;18310;55.586;12.286;2023-06-26T11:35:55;11.25;;;6.30;;
31730;SDS011;18310;55.586;12.286;2023-06-26T11:39:10;9.93;;;6.03;;
31730;SDS011;18310;55.586;12.286;2023-06-26T11:42:13;9.57;;;6.80;;
31730;SDS011;18310;55.586;12.286;2023-06-26T11:45:17;9.77;;;6.83;;
31730;SDS011;18310;55.586;12.286;2023-06-26T11:48:20;9.52;;;6.13;;
31730;SDS011;18310;55.586;12.286;2023-06-26T11:51:25;10.05;;;5.55;;
31730;SDS011;18310;55.586;12.286;2023-06-26T11:54:29;13.02;;;6.00;;
31730;SDS011;18310;55.586;12.286;2023-06-26T11:57:32;9.33;;;5.73;;
31730;SDS011;18310;55.586;12.286;2023-06-26T12:00:40;9.00;;;5.82;;
31730;SDS011;18310;55.586;12.286;2023-06-26T12:03:44;9.82;;;5.63;;
31730;SDS011;18310;55.586;12.286;2023-06-26T12:06:50;10.25;;;6.07;;
31730;SDS011;18310;55.586;12.286;2023-06-26T12:09:59;9.02;;;6.45;;
31730;SDS011;18310;55.586;12.286;2023-06-26T12:13:03;8.88;;;6.32;;
31730;SDS011;18310;55.586;12.286;2023-06-26T12:19:10;10.20;;;6.30;;
31730;SDS011;18310;55.586;12.286;2023-06-26T12:23:18;11.02;;;5.90;;
31730;SDS011;18310;55.586;12.286;2023-06-26T12:26:21;12.82;;;6.72;;
31730;SDS011;18310;55.586;12.286;2023-06-26T12:29:29;9.13;;;7.20;;
31730;SDS011;18310;55.586;12.286;2023-06-26T12:32:34;8.60;;;5.88;;
31730;SDS011;18310;55.586;12.286;2023-06-26T12:38:46;10.70;;;5.95;;
31730;SDS011;18310;55.586;12.286;2023-06-26T12:41:52;9.30;;;5.88;;
31730;SDS011;18310;55.586;12.286;2023-06-26T12:44:57;9.25;;;6.38;;
31730;SDS011;18310;55.586;12.286;2023-06-26T12:48:07;10.35;;;5.72;;
31730;SDS011;18310;55.586;12.286;2023-06-26T12:51:11;8.05;;;5.25;;
31730;SDS011;18310;55.586;12.286;2023-06-26T12:54:16;9.98;;;4.50;;
31730;SDS011;18310;55.586;12.286;2023-06-26T12:57:19;6.47;;;3.28;;
31730;SDS011;18310;55.586;12.286;2023-06-26T13:00:22;5.07;;;2.55;;
31730;SDS011;18310;55.586;12.286;2023-06-26T13:03:27;4.72;;;2.45;;
31730;SDS011;18310;55.586;12.286;2023-06-26T13:06:31;7.10;;;3.03;;
31730;SDS011;18310;55.586;12.286;2023-06-26T13:09:36;5.80;;;2.70;;
31730;SDS011;18310;55.586;12.286;2023-06-26T13:12:40;9.85;;;3.28;;
31730;SDS011;18310;55.586;12.286;2023-06-26T13:15:43;7.10;;;2.93;;
31730;SDS011;18310;55.586;12.286;2023-06-26T13:18:47;8.75;;;2.95;;
31730;SDS011;18310;55.586;12.286;2023-06-26T13:21:50;8.43;;;3.60;;
31730;SDS011;18310;55.586;12.286;2023-06-26T13:24:55;8.77;;;3.38;;
31730;SDS011;18310;55.586;12.286;2023-06-26T13:27:58;7.95;;;3.30;;
31730;SDS011;18310;55.586;12.286;2023-06-26T13:31:01;8.13;;;3.43;;
31730;SDS011;18310;55.586;12.286;2023-06-26T13:34:27;13.48;;;4.55;;
31730;SDS011;18310;55.586;12.286;2023-06-26T13:37:32;11.50;;;3.63;;
31730;SDS011;18310;55.586;12.286;2023-06-26T13:40:36;8.23;;;3.35;;
31730;SDS011;18310;55.586;12.286;2023-06-26T13:43:39;16.00;;;3.67;;
31730;SDS011;18310;55.586;12.286;2023-06-26T13:46:43;8.00;;;2.85;;
31730;SDS011;18310;55.586;12.286;2023-06-26T13:49:47;5.63;;;3.07;;
31730;SDS011;18310;55.586;12.286;2023-06-26T13:52:50;7.57;;;3.20;;
31730;SDS011;18310;55.586;12.286;2023-06-26T13:55:53;6.65;;;3.17;;
31730;SDS011;18310;55.586;12.286;2023-06-26T13:58:57;6.90;;;2.93;;
31730;SDS011;18310;55.586;12.286;2023-06-26T14:05:05;6.95;;;3.17;;
31730;SDS011;18310;55.586;12.286;2023-06-26T14:08:10;6.45;;;2.88;;
31730;SDS011;18310;55.586;12.286;2023-06-26T14:11:13;5.57;;;2.58;;
31730;SDS011;18310;55.586;12.286;2023-06-26T14:14:18;6.90;;;2.72;;
31730;SDS011;18310;55.586;12.286;2023-06-26T14:17:21;4.15;;;2.88;;
31730;SDS011;18310;55.586;12.286;2023-06-26T14:20:27;6.65;;;3.00;;
31730;SDS011;18310;55.586;12.286;2023-06-26T14:23:30;7.90;;;3.22;;
31730;SDS011;18310;55.586;12.286;2023-06-26T14:26:33;5.40;;;2.90;;
31730;SDS011;18310;55.586;12.286;2023-06-26T14:29:38;10.07;;;3.08;;
31730;SDS011;18310;55.586;12.286;2023-06-26T14:32:41;9.30;;;3.75;;
31730;SDS011;18310;55.586;12.286;2023-06-26T14:35:47;5.22;;;2.83;;
31730;SDS011;18310;55.586;12.286;2023-06-26T14:38:51;10.10;;;3.22;;
31730;SDS011;18310;55.586;12.286;2023-06-26T14:41:54;7.18;;;2.88;;
31730;SDS011;18310;55.586;12.286;2023-06-26T14:44:58;16.35;;;4.03;;
31730;SDS011;18310;55.586;12.286;2023-06-26T14:48:02;6.68;;;3.00;;
31730;SDS011;18310;55.586;12.286;2023-06-26T14:51:07;9.18;;;2.53;;
31730;SDS011;18310;55.586;12.286;2023-06-26T14:54:10;6.28;;;2.83;;
31730;SDS011;18310;55.586;12.286;2023-06-26T14:57:13;5.90;;;2.73;;
31730;SDS011;18310;55.586;12.286;2023-06-26T15:00:16;6.93;;;2.92;;
31730;SDS011;18310;55.586;12.286;2023-06-26T15:03:21;8.05;;;2.78;;
31730;SDS011;18310;55.586;12.286;2023-06-26T15:06:26;8.10;;;3.20;;
31730;SDS011;18310;55.586;12.286;2023-06-26T15:09:29;4.75;;;2.80;;
31730;SDS011;18310;55.586;12.286;2023-06-26T15:12:33;8.88;;;3.45;;
31730;SDS011;18310;55.586;12.286;2023-06-26T15:15:37;6.47;;;3.20;;
31730;SDS011;18310;55.586;12.286;2023-06-26T15:18:41;6.50;;;2.42;;
31730;SDS011;18310;55.586;12.286;2023-06-26T15:21:45;9.02;;;3.22;;
31730;SDS011;18310;55.586;12.286;2023-06-26T15:24:49;5.05;;;3.03;;
31730;SDS011;18310;55.586;12.286;2023-06-26T15:27:52;6.00;;;2.97;;
31730;SDS011;18310;55.586;12.286;2023-06-26T15:30:55;6.37;;;3.47;;
31730;SDS011;18310;55.586;12.286;2023-06-26T15:33:58;8.10;;;3.17;;
31730;SDS011;18310;55.586;12.286;2023-06-26T15:37:02;5.55;;;3.00;;
31730;SDS011;18310;55.586;12.286;2023-06-26T15:40:06;4.43;;;2.95;;
31730;SDS011;18310;55.586;12.286;2023-06-26T15:43:10;8.20;;;3.40;;
31730;SDS011;18310;55.586;12.286;2023-06-26T15:46:13;5.43;;;3.20;;
31730;SDS011;18310;55.586;12.286;2023-06-26T15:49:17;6.15;;;2.92;;
31730;SDS011;18310;55.586;12.286;2023-06-26T15:52:21;6.38;;;3.05;;
31730;SDS011;18310;55.586;12.286;2023-06-26T15:55:25;5.10;;;2.55;;
31730;SDS011;18310;55.586;12.286;2023-06-26T15:58:28;6.07;;;3.17;;
31730;SDS011;18310;55.586;12.286;2023-06-26T16:01:31;6.13;;;2.60;;
31730;SDS011;18310;55.586;12.286;2023-06-26T16:04:34;5.90;;;3.37;;
31730;SDS011;18310;55.586;12.286;2023-06-26T16:07:38;5.67;;;2.73;;
31730;SDS011;18310;55.586;12.286;2023-06-26T16:10:58;6.63;;;3.10;;
31730;SDS011;18310;55.586;12.286;2023-06-26T16:14:01;5.57;;;2.50;;
31730;SDS011;18310;55.586;12.286;2023-06-26T16:17:04;5.10;;;2.85;;
31730;SDS011;18310;55.586;12.286;2023-06-26T16:23:13;4.50;;;2.40;;
31730;SDS011;18310;55.586;12.286;2023-06-26T16:26:16;4.28;;;3.03;;
31730;SDS011;18310;55.586;12.286;2023-06-26T16:29:20;4.57;;;3.25;;
31730;SDS011;18310;55.586;12.286;2023-06-26T16:32:24;5.68;;;3.15;;
31730;SDS011;18310;55.586;12.286;2023-06-26T16:35:27;5.00;;;2.83;;
31730;SDS011;18310;55.586;12.286;2023-06-26T16:38:35;5.40;;;3.22;;
31730;SDS011;18310;55.586;12.286;2023-06-26T16:41:39;6.60;;;3.20;;
31730;SDS011;18310;55.586;12.286;2023-06-26T16:44:43;7.00;;;2.40;;
31730;SDS011;18310;55.586;12.286;2023-06-26T16:47:46;8.43;;;2.72;;
31730;SDS011;18310;55.586;12.286;2023-06-26T16:50:49;11.33;;;2.90;;
31730;SDS011;18310;55.586;12.286;2023-06-26T16:53:54;9.68;;;3.38;;
31730;SDS011;18310;55.586;12.286;2023-06-26T16:56:57;9.85;;;3.65;;
31730;SDS011;18310;55.586;12.286;2023-06-26T17:00:01;7.72;;;2.72;;
31730;SDS011;18310;55.586;12.286;2023-06-26T17:03:05;5.75;;;2.67;;
31730;SDS011;18310;55.586;12.286;2023-06-26T17:06:09;5.30;;;2.17;;
31730;SDS011;18310;55.586;12.286;2023-06-26T17:09:15;7.70;;;2.17;;
31730;SDS011;18310;55.586;12.286;2023-06-26T17:12:18;8.00;;;1.77;;
31730;SDS011;18310;55.586;12.286;2023-06-26T17:15:21;8.47;;;1.90;;
31730;SDS011;18310;55.586;12.286;2023-06-26T17:18:24;5.32;;;1.60;;
31730;SDS011;18310;55.586;12.286;2023-06-26T17:21:28;9.43;;;2.10;;
31730;SDS011;18310;55.586;12.286;2023-06-26T17:24:32;5.35;;;1.60;;
31730;SDS011;18310;55.586;12.286;2023-06-26T17:27:35;6.80;;;1.70;;
31730;SDS011;18310;55.586;12.286;2023-06-26T17:30:39;6.77;;;1.60;;
31730;SDS011;18310;55.586;12.286;2023-06-26T17:33:44;5.25;;;1.63;;
31730;SDS011;18310;55.586;12.286;2023-06-26T17:36:48;5.65;;;1.50;;
31730;SDS011;18310;55.586;12.286;2023-06-26T17:39:52;6.82;;;1.85;;
31730;SDS011;18310;55.586;12.286;2023-06-26T17:42:57;4.78;;;1.58;;
31730;SDS011;18310;55.586;12.286;2023-06-26T17:46:00;7.90;;;1.80;;
31730;SDS011;18310;55.586;12.286;2023-06-26T17:49:03;4.05;;;1.27;;
31730;SDS011;18310;55.586;12.286;2023-06-26T17:52:06;5.73;;;1.50;;
31730;SDS011;18310;55.586;12.286;2023-06-26T17:55:11;6.68;;;1.55;;
31730;SDS011;18310;55.586;12.286;2023-06-26T17:58:14;4.53;;;1.35;;
31730;SDS011;18310;55.586;12.286;2023-06-26T18:01:17;5.05;;;1.20;;
31730;SDS011;18310;55.586;12.286;2023-06-26T18:04:20;6.73;;;1.63;;
31730;SDS011;18310;55.586;12.286;2023-06-26T18:07:23;3.13;;;1.03;;
31730;SDS011;18310;55.586;12.286;2023-06-26T18:10:28;5.13;;;1.10;;
31730;SDS011;18310;55.586;12.286;2023-06-26T18:13:31;3.22;;;1.15;;
31730;SDS011;18310;55.586;12.286;2023-06-26T18:16:35;9.73;;;1.33;;
31730;SDS011;18310;55.586;12.286;2023-06-26T18:19:38;3.88;;;1.38;;
31730;SDS011;18310;55.586;12.286;2023-06-26T18:22:41;3.20;;;1.15;;
31730;SDS011;18310;55.586;12.286;2023-06-26T18:25:46;9.43;;;2.03;;
31730;SDS011;18310;55.586;12.286;2023-06-26T18:28:49;8.32;;;2.97;;
31730;SDS011;18310;55.586;12.286;2023-06-26T18:31:54;9.27;;;4.68;;
31730;SDS011;18310;55.586;12.286;2023-06-26T18:34:58;5.80;;;1.52;;
31730;SDS011;18310;55.586;12.286;2023-06-26T18:38:01;3.23;;;1.40;;
31730;SDS011;18310;55.586;12.286;2023-06-26T18:41:08;4.45;;;1.33;;
31730;SDS011;18310;55.586;12.286;2023-06-26T18:44:11;5.07;;;1.30;;